createdAt,value
2022-10-04T00:01:51.496Z,4.25
2022-10-04T00:04:25.496Z,4.70
2022-10-04T00:06:58.949Z,4.05
2022-10-04T00:11:57.921Z,3.80
2022-10-04T00:14:31.442Z,4.10
2022-10-04T00:17:08.507Z,4.57
2022-10-04T00:19:46.912Z,3.95
2022-10-04T00:22:23.690Z,4.38
2022-10-04T00:25:19.459Z,4.18
2022-10-04T00:28:29.066Z,4.35
2022-10-04T00:31:21.769Z,4.78
2022-10-04T00:33:52.894Z,4.55
2022-10-04T00:36:45.368Z,3.90
2022-10-04T00:39:25.264Z,3.47
2022-10-04T00:42:00.408Z,3.78
2022-10-04T00:44:34.419Z,4.28
2022-10-04T00:47:05.218Z,4.13
2022-10-04T00:49:41.580Z,4.75
2022-10-04T00:52:15.705Z,4.47
2022-10-04T00:54:50.179Z,3.97
2022-10-04T00:57:22.505Z,3.75
2022-10-04T00:59:53.192Z,3.67
2022-10-04T01:02:22.327Z,3.72
2022-10-04T01:04:57.842Z,3.92
2022-10-04T01:07:29.874Z,4.22
2022-10-04T01:10:00.877Z,3.85
2022-10-04T01:12:41.843Z,3.92
2022-10-04T01:15:15.905Z,3.85
2022-10-04T01:18:09.330Z,3.55
2022-10-04T01:20:41.452Z,3.95
2022-10-04T01:23:11.947Z,3.88
2022-10-04T01:25:50.588Z,3.60
2022-10-04T01:28:18.611Z,3.80
2022-10-04T01:30:46.685Z,3.88
2022-10-04T01:33:14.524Z,4.38
2022-10-04T01:35:42.240Z,4.15
2022-10-04T01:38:09.932Z,4.00
2022-10-04T01:40:46.812Z,4.22
2022-10-04T01:43:22.000Z,3.80
2022-10-04T01:45:54.746Z,3.97
2022-10-04T01:48:25.605Z,4.47
2022-10-04T01:50:58.644Z,3.58
2022-10-04T01:53:29.768Z,3.83
2022-10-04T01:56:06.901Z,3.88
2022-10-04T01:58:42.485Z,4.95
2022-10-04T02:01:15.862Z,4.53
2022-10-04T02:06:14.937Z,3.67
2022-10-04T02:08:49.385Z,4.20
2022-10-04T02:11:21.801Z,4.82
2022-10-04T02:13:52.846Z,3.80
2022-10-04T02:16:22.222Z,4.30
2022-10-04T02:18:51.776Z,3.78
2022-10-04T02:21:20.736Z,4.18
2022-10-04T02:23:49.367Z,3.78
2022-10-04T02:26:17.002Z,3.72
2022-10-04T02:28:45.929Z,4.32
2022-10-04T02:31:31.340Z,3.85
2022-10-04T02:34:00.725Z,4.20
2022-10-04T02:36:30.355Z,3.53
2022-10-04T02:39:03.640Z,3.78
2022-10-04T02:41:35.659Z,3.55
2022-10-04T02:44:13.981Z,3.58
2022-10-04T02:46:47.301Z,3.72
2022-10-04T02:49:25.495Z,4.18
2022-10-04T02:52:01.208Z,3.70
2022-10-04T02:54:31.862Z,3.58
2022-10-04T02:57:00.696Z,3.38
2022-10-04T02:59:35.257Z,3.28
2022-10-04T03:02:03.457Z,3.60
2022-10-04T03:04:34.436Z,4.15
2022-10-04T03:07:05.939Z,3.60
2022-10-04T03:09:36.322Z,3.45
2022-10-04T03:12:05.252Z,3.70
2022-10-04T03:14:35.221Z,3.58
2022-10-04T03:17:04.860Z,3.58
2022-10-04T03:19:34.364Z,3.60
2022-10-04T03:22:05.547Z,3.65
2022-10-04T03:24:37.093Z,3.53
2022-10-04T03:27:07.715Z,4.25
2022-10-04T03:29:42.141Z,5.95
2022-10-04T03:32:13.915Z,4.10
2022-10-04T03:34:45.356Z,3.78
2022-10-04T03:37:17.436Z,4.45
2022-10-04T03:39:47.559Z,4.03
2022-10-04T03:42:17.471Z,4.20
2022-10-04T03:44:48.138Z,3.90
2022-10-04T03:47:20.375Z,3.53
2022-10-04T03:49:50.971Z,4.13
2022-10-04T03:52:23.910Z,3.75
2022-10-04T03:54:54.615Z,3.28
2022-10-04T03:57:22.690Z,3.33
2022-10-04T03:59:52.719Z,4.03
2022-10-04T04:02:35.120Z,3.70
2022-10-04T04:05:11.300Z,3.45
2022-10-04T04:07:43.149Z,3.75
2022-10-04T04:10:19.314Z,3.95
2022-10-04T04:12:53.441Z,3.78
2022-10-04T04:15:22.638Z,3.90
2022-10-04T04:17:53.362Z,4.82
2022-10-04T04:20:25.856Z,4.60
2022-10-04T04:23:02.005Z,3.43
2022-10-04T04:25:32.949Z,3.60
2022-10-04T04:28:12.834Z,4.50
2022-10-04T04:30:46.632Z,3.40
2022-10-04T04:33:22.628Z,3.50
2022-10-04T04:35:56.237Z,3.60
2022-10-04T04:38:25.629Z,3.53
2022-10-04T04:40:55.551Z,3.65
2022-10-04T04:43:27.360Z,3.50
2022-10-04T04:46:25.490Z,3.30
2022-10-04T04:48:49.603Z,3.65
2022-10-04T04:51:22.796Z,4.10
2022-10-04T04:53:51.893Z,3.40
2022-10-04T04:56:23.805Z,3.67
2022-10-04T04:58:53.735Z,3.33
2022-10-04T05:01:26.283Z,3.58
2022-10-04T05:04:05.043Z,3.40
2022-10-04T05:06:35.907Z,3.00
2022-10-04T05:09:04.214Z,3.25
2022-10-04T05:11:33.978Z,3.67
2022-10-04T05:14:05.770Z,3.28
2022-10-04T05:16:40.927Z,3.22
2022-10-04T05:19:16.468Z,3.42
2022-10-04T05:21:46.686Z,3.92
2022-10-04T05:24:21.473Z,4.05
2022-10-04T05:26:52.889Z,3.72
2022-10-04T05:29:22.844Z,3.30
2022-10-04T05:32:03.215Z,3.38
2022-10-04T05:34:37.035Z,3.00
2022-10-04T05:37:28.688Z,4.50
2022-10-04T05:40:06.554Z,5.00
2022-10-04T05:42:38.911Z,3.70
2022-10-04T05:45:17.237Z,3.42
2022-10-04T05:47:47.387Z,3.25
2022-10-04T05:50:18.429Z,4.38
2022-10-04T05:52:48.031Z,3.75
2022-10-04T05:55:19.133Z,3.40
2022-10-04T05:57:57.243Z,5.60
2022-10-04T06:00:34.541Z,6.72
2022-10-04T06:03:31.369Z,5.22
2022-10-04T06:06:03.284Z,3.00
2022-10-04T06:08:44.586Z,3.85
2022-10-04T06:11:33.915Z,3.63
2022-10-04T06:14:21.676Z,3.63
2022-10-04T06:17:07.227Z,3.30
2022-10-04T06:19:54.229Z,3.42
2022-10-04T06:22:23.137Z,3.83
2022-10-04T06:24:57.025Z,3.45
2022-10-04T06:27:33.239Z,3.10
2022-10-04T06:30:04.221Z,4.05
2022-10-04T06:33:11.444Z,3.58
2022-10-04T06:35:57.482Z,4.57
2022-10-04T06:38:48.217Z,7.00
2022-10-04T06:41:28.268Z,5.97
2022-10-04T06:44:08.787Z,4.82
2022-10-04T06:46:44.330Z,4.82
2022-10-04T06:49:34.350Z,4.97
2022-10-04T06:52:26.806Z,5.10
2022-10-04T06:55:18.877Z,4.85
2022-10-04T06:58:08.299Z,4.45
2022-10-04T07:00:42.262Z,4.53
2022-10-04T07:03:15.265Z,4.15
2022-10-04T07:05:47.110Z,4.40
2022-10-04T07:08:31.013Z,6.07
2022-10-04T07:11:04.045Z,5.43
2022-10-04T07:13:44.827Z,8.70
2022-10-04T07:16:29.455Z,8.27
2022-10-04T07:19:09.594Z,6.10
2022-10-04T07:21:45.373Z,5.40
2022-10-04T07:24:25.989Z,4.40
2022-10-04T07:26:55.927Z,3.90
2022-10-04T07:29:26.286Z,4.65
2022-10-04T07:32:06.490Z,4.38
2022-10-04T07:34:37.633Z,3.97
2022-10-04T07:37:12.549Z,4.03
2022-10-04T07:39:50.377Z,6.03
2022-10-04T07:42:26.627Z,16.77
2022-10-04T07:45:18.876Z,9.45
2022-10-04T07:47:46.962Z,5.18
2022-10-04T07:50:21.716Z,4.57
2022-10-04T07:52:56.926Z,4.03
2022-10-04T07:55:29.801Z,4.30
2022-10-04T07:58:14.021Z,3.88
2022-10-04T08:00:50.146Z,5.47
2022-10-04T08:03:31.893Z,4.65
2022-10-04T08:06:11.433Z,4.40
2022-10-04T08:08:58.082Z,3.40
2022-10-04T08:11:39.014Z,3.80
2022-10-04T08:14:23.175Z,3.38
2022-10-04T08:17:03.341Z,3.78
2022-10-04T08:19:43.387Z,3.63
2022-10-04T08:22:23.368Z,3.85
2022-10-04T08:25:02.396Z,10.43
2022-10-04T08:28:08.765Z,4.63
2022-10-04T08:30:51.670Z,3.88
2022-10-04T08:33:29.852Z,4.60
2022-10-04T08:36:13.593Z,4.35
2022-10-04T08:38:49.524Z,4.03
2022-10-04T08:41:51.115Z,3.90
2022-10-04T08:45:08.171Z,4.22
2022-10-04T08:48:25.108Z,3.45
2022-10-04T08:51:21.817Z,5.15
2022-10-04T08:54:35.674Z,4.30
2022-10-04T08:57:21.815Z,4.22
2022-10-04T09:00:10.384Z,3.92
2022-10-04T09:03:15.592Z,3.53
2022-10-04T09:05:59.759Z,3.05
2022-10-04T09:09:22.465Z,3.15
2022-10-04T09:12:15.929Z,3.38
2022-10-04T09:15:04.259Z,2.90
2022-10-04T09:17:46.378Z,3.47
2022-10-04T09:20:39.633Z,3.20
2022-10-04T09:23:23.283Z,4.10
2022-10-04T09:26:06.334Z,3.25
2022-10-04T09:29:12.225Z,3.30
2022-10-04T09:32:01.545Z,3.08
2022-10-04T09:34:38.781Z,3.10
2022-10-04T09:37:36.872Z,2.90
2022-10-04T09:40:49.584Z,2.78
2022-10-04T09:43:37.106Z,2.72
2022-10-04T09:46:19.193Z,3.08
2022-10-04T09:48:59.735Z,2.95
2022-10-04T09:52:08.839Z,2.53
2022-10-04T09:55:04.338Z,2.78
2022-10-04T09:58:01.891Z,2.72
2022-10-04T10:00:36.760Z,2.00
2022-10-04T10:03:34.401Z,3.33
2022-10-04T10:06:40.608Z,2.40
2022-10-04T10:09:19.425Z,2.33
2022-10-04T10:12:23.521Z,2.40
2022-10-04T10:15:17.676Z,2.22
2022-10-04T10:17:56.463Z,2.05
2022-10-04T10:20:41.632Z,2.22
2022-10-04T10:23:48.787Z,2.42
2022-10-04T10:26:42.021Z,2.17
2022-10-04T10:29:49.179Z,2.40
2022-10-04T10:32:36.422Z,3.03
2022-10-04T10:35:47.074Z,1.83
2022-10-04T10:38:31.098Z,2.10
2022-10-04T10:41:20.083Z,2.10
2022-10-04T10:44:09.831Z,2.20
2022-10-04T10:46:58.348Z,1.88
2022-10-04T10:49:54.073Z,2.20
2022-10-04T10:52:59.247Z,2.22
2022-10-04T10:55:34.519Z,2.13
2022-10-04T10:58:36.680Z,2.30
2022-10-04T11:01:26.630Z,2.40
2022-10-04T11:04:14.483Z,2.25
2022-10-04T11:07:18.365Z,2.72
2022-10-04T11:10:21.596Z,3.25
2022-10-04T11:13:08.778Z,2.55
2022-10-04T11:16:14.782Z,3.20
2022-10-04T11:19:23.423Z,3.95
2022-10-04T11:22:42.345Z,2.25
2022-10-04T11:25:36.790Z,2.10
2022-10-04T11:28:13.787Z,2.10
2022-10-04T11:31:12.842Z,3.00
2022-10-04T11:33:58.174Z,2.53
2022-10-04T11:36:40.077Z,1.98
2022-10-04T11:39:33.055Z,1.77
2022-10-04T11:42:13.584Z,2.00
2022-10-04T11:45:14.460Z,1.83
2022-10-04T11:47:51.952Z,1.77
2022-10-04T11:50:31.392Z,2.28
2022-10-04T11:53:47.974Z,1.60
2022-10-04T11:56:28.360Z,1.63
2022-10-04T11:59:08.490Z,1.70
2022-10-04T12:02:07.280Z,1.73
2022-10-04T12:05:19.169Z,1.60
2022-10-04T12:07:57.956Z,1.70
2022-10-04T12:10:29.911Z,1.85
2022-10-04T12:13:27.670Z,1.70
2022-10-04T12:16:13.510Z,1.98
2022-10-04T12:19:01.877Z,1.75
2022-10-04T12:21:42.142Z,1.77
2022-10-04T12:24:19.571Z,1.80
2022-10-04T12:27:18.746Z,1.80
2022-10-04T12:30:21.360Z,1.60
2022-10-04T12:33:03.256Z,1.60
2022-10-04T12:35:44.507Z,2.00
2022-10-04T12:38:25.377Z,1.75
2022-10-04T12:41:01.857Z,3.15
2022-10-04T12:43:38.364Z,1.70
2022-10-04T12:46:19.692Z,1.75
2022-10-04T12:49:00.662Z,2.03
2022-10-04T12:51:50.752Z,1.80
2022-10-04T12:54:31.933Z,1.85
2022-10-04T12:57:10.293Z,1.70
2022-10-04T12:59:49.349Z,1.75
2022-10-04T13:02:44.656Z,1.70
2022-10-04T13:05:18.124Z,1.67
2022-10-04T13:08:03.463Z,2.25
2022-10-04T13:10:55.929Z,1.73
2022-10-04T13:13:40.982Z,1.70
2022-10-04T13:19:18.409Z,1.60
2022-10-04T13:22:44.075Z,1.70
2022-10-04T13:25:29.317Z,1.60
2022-10-04T13:28:03.818Z,1.48
2022-10-04T13:30:43.881Z,1.80
2022-10-04T13:33:24.541Z,1.73
2022-10-04T13:35:59.333Z,1.98
2022-10-04T13:38:47.312Z,1.63
2022-10-04T13:41:31.936Z,1.02
2022-10-04T13:44:26.080Z,1.40
2022-10-04T13:47:14.572Z,1.30
2022-10-04T13:49:55.246Z,1.52
2022-10-04T13:53:06.586Z,1.40
2022-10-04T13:56:00.572Z,1.40
2022-10-04T13:58:42.812Z,1.50
2022-10-04T14:01:40.129Z,1.40
2022-10-04T14:04:26.013Z,1.77
2022-10-04T14:07:17.306Z,1.50
2022-10-04T14:10:02.032Z,1.50
2022-10-04T14:13:05.979Z,1.33
2022-10-04T14:16:06.095Z,1.20
2022-10-04T14:19:21.111Z,1.77
2022-10-04T14:22:29.924Z,1.55
2022-10-04T14:25:21.653Z,1.40
2022-10-04T14:28:17.940Z,1.08
2022-10-04T14:31:05.163Z,1.48
2022-10-04T14:33:54.635Z,1.50
2022-10-04T14:36:50.623Z,1.55
2022-10-04T14:39:35.810Z,1.50
2022-10-04T14:42:36.129Z,1.00
2022-10-04T14:45:21.131Z,1.25
2022-10-04T14:48:08.779Z,1.58
2022-10-04T14:50:57.628Z,1.60
2022-10-04T14:53:35.412Z,1.60
2022-10-04T14:56:32.716Z,1.92
2022-10-04T14:59:17.796Z,1.77
2022-10-04T15:02:08.044Z,1.80
2022-10-04T15:04:58.142Z,1.38
2022-10-04T15:07:33.571Z,1.40
2022-10-04T15:10:11.237Z,1.83
2022-10-04T15:13:10.051Z,1.38
2022-10-04T15:15:59.803Z,1.60
2022-10-04T15:18:45.080Z,1.83
2022-10-04T15:21:33.647Z,1.35
2022-10-04T15:24:24.045Z,1.50
2022-10-04T15:27:07.369Z,1.60
2022-10-04T15:29:46.092Z,1.73
2022-10-04T15:32:25.343Z,1.65
2022-10-04T15:35:05.949Z,1.25
2022-10-04T15:37:43.971Z,1.40
2022-10-04T15:40:25.120Z,1.30
2022-10-04T15:43:04.370Z,2.05
2022-10-04T15:45:50.448Z,1.60
2022-10-04T15:48:36.568Z,1.85
2022-10-04T15:51:12.725Z,1.65
2022-10-04T15:54:04.646Z,1.80
2022-10-04T15:56:44.577Z,1.73
2022-10-04T15:59:33.138Z,1.80
2022-10-04T16:02:22.136Z,1.85
2022-10-04T16:05:04.172Z,1.88
2022-10-04T16:07:42.575Z,2.53
2022-10-04T16:10:19.800Z,2.30
2022-10-04T16:13:28.811Z,2.20
2022-10-04T16:16:26.108Z,2.08
2022-10-04T16:19:05.618Z,1.80
2022-10-04T16:21:42.290Z,1.85
2022-10-04T16:24:46.700Z,3.15
2022-10-04T16:27:35.387Z,2.58
2022-10-04T16:30:26.906Z,1.95
2022-10-04T16:33:11.455Z,1.67
2022-10-04T16:35:46.327Z,1.80
2022-10-04T16:38:24.734Z,1.50
2022-10-04T16:41:14.683Z,1.63
2022-10-04T16:43:53.647Z,3.22
2022-10-04T16:46:30.675Z,3.95
2022-10-04T16:49:03.921Z,9.38
2022-10-04T16:54:38.708Z,23.15
2022-10-04T16:57:19.607Z,7.72
2022-10-04T16:59:53.908Z,3.78
2022-10-04T17:02:41.251Z,4.25
2022-10-04T17:05:25.434Z,3.10
2022-10-04T17:08:11.790Z,2.28
2022-10-04T17:10:54.673Z,7.05
2022-10-04T17:13:26.513Z,4.83
2022-10-04T17:16:06.478Z,4.15
2022-10-04T17:18:45.614Z,6.30
2022-10-04T17:21:29.115Z,10.38
2022-10-04T17:24:21.642Z,8.55
2022-10-04T17:27:05.748Z,7.65
2022-10-04T17:29:48.878Z,6.35
2022-10-04T17:32:27.275Z,6.10
2022-10-04T17:35:08.995Z,9.18
2022-10-04T17:37:47.225Z,7.55
2022-10-04T17:40:29.121Z,7.72
2022-10-04T17:43:06.685Z,10.93
2022-10-04T17:45:53.296Z,6.35
2022-10-04T17:48:42.782Z,5.45
2022-10-04T17:51:34.459Z,5.22
2022-10-04T17:54:30.033Z,4.93
2022-10-04T17:57:16.024Z,10.98
2022-10-04T17:59:46.899Z,14.55
2022-10-04T18:02:21.090Z,6.30
2022-10-04T18:04:54.437Z,7.18
2022-10-04T18:07:25.862Z,7.38
2022-10-04T18:09:57.446Z,7.13
2022-10-04T18:12:29.437Z,7.68
2022-10-04T18:15:03.182Z,7.97
2022-10-04T18:17:35.709Z,6.78
2022-10-04T18:20:27.036Z,5.72
2022-10-04T18:23:01.194Z,36.22
2022-10-04T18:25:32.043Z,28.48
2022-10-04T18:28:12.371Z,14.05
2022-10-04T18:30:58.991Z,12.85
2022-10-04T18:33:45.028Z,11.98
2022-10-04T18:36:16.269Z,6.72
2022-10-04T18:38:46.179Z,5.00
2022-10-04T18:41:21.251Z,3.08
2022-10-04T18:43:53.636Z,3.00
2022-10-04T18:46:22.719Z,3.22
2022-10-04T18:48:55.135Z,4.82
2022-10-04T18:51:27.271Z,7.15
2022-10-04T18:54:16.093Z,6.03
2022-10-04T18:56:54.918Z,4.97
2022-10-04T18:59:51.078Z,4.03
2022-10-04T19:02:26.035Z,3.80
2022-10-04T19:05:02.707Z,4.43
2022-10-04T19:07:38.689Z,4.10
2022-10-04T19:10:18.845Z,4.00
2022-10-04T19:13:06.993Z,3.67
2022-10-04T19:15:44.007Z,3.20
2022-10-04T19:18:23.945Z,4.32
2022-10-04T19:20:59.316Z,4.07
2022-10-04T19:23:35.669Z,4.53
2022-10-04T19:26:31.108Z,5.07
2022-10-04T19:29:08.889Z,4.88
2022-10-04T19:31:47.222Z,5.35
2022-10-04T19:34:20.129Z,5.32
2022-10-04T19:36:54.454Z,4.00
2022-10-04T19:39:38.988Z,3.67
2022-10-04T19:42:13.431Z,4.13
2022-10-04T19:45:02.773Z,4.88
2022-10-04T19:47:41.563Z,4.05
2022-10-04T19:50:21.073Z,5.18
2022-10-04T19:52:53.496Z,5.13
2022-10-04T19:55:26.253Z,5.15
2022-10-04T19:58:01.455Z,4.50
2022-10-04T20:00:30.392Z,5.57
2022-10-04T20:02:57.957Z,6.15
2022-10-04T20:05:25.817Z,4.55
2022-10-04T20:07:57.448Z,4.10
2022-10-04T20:10:34.472Z,4.45
2022-10-04T20:13:16.664Z,4.40
2022-10-04T20:15:48.418Z,4.20
2022-10-04T20:19:05.031Z,5.63
2022-10-04T20:21:32.785Z,5.43
2022-10-04T20:24:01.494Z,5.05
2022-10-04T20:27:06.488Z,5.35
2022-10-04T20:30:04.005Z,4.30
2022-10-04T20:33:01.936Z,4.20
2022-10-04T20:36:08.791Z,5.47
2022-10-04T20:38:52.948Z,6.43
2022-10-04T20:42:17.572Z,5.95
2022-10-04T20:44:55.189Z,5.97
2022-10-04T20:47:32.778Z,6.95
2022-10-04T20:50:03.012Z,6.10
2022-10-04T20:52:33.085Z,5.90
2022-10-04T20:55:02.847Z,5.28
2022-10-04T20:57:31.041Z,5.35
2022-10-04T20:59:59.401Z,5.50
2022-10-04T21:02:28.483Z,5.70
2022-10-04T21:05:14.560Z,5.72
2022-10-04T21:07:42.101Z,5.38
2022-10-04T21:10:17.914Z,5.72
2022-10-04T21:12:45.691Z,5.32
2022-10-04T21:15:21.573Z,5.35
2022-10-04T21:18:03.781Z,5.20
2022-10-04T21:20:45.327Z,5.45
2022-10-04T21:23:20.996Z,5.28
2022-10-04T21:25:48.577Z,5.45
2022-10-04T21:28:35.787Z,5.88
2022-10-04T21:31:04.412Z,5.60
2022-10-04T21:33:33.027Z,5.72
2022-10-04T21:36:01.932Z,5.25
2022-10-04T21:38:29.801Z,5.75
2022-10-04T21:40:57.750Z,5.50
2022-10-04T21:43:26.132Z,5.97
2022-10-04T21:45:53.698Z,5.78
2022-10-04T21:48:23.097Z,5.97
2022-10-04T21:50:52.374Z,5.40
2022-10-04T21:53:21.991Z,5.28
2022-10-04T21:55:49.503Z,5.30
2022-10-04T21:58:17.027Z,5.50
2022-10-04T22:00:44.619Z,5.32
2022-10-04T22:03:12.234Z,5.10
2022-10-04T22:05:39.745Z,5.35
2022-10-04T22:08:07.287Z,4.82
2022-10-04T22:10:36.195Z,5.75
2022-10-04T22:13:03.815Z,5.22
2022-10-04T22:15:31.395Z,5.93
2022-10-04T22:17:58.916Z,5.22
2022-10-04T22:20:26.855Z,5.38
2022-10-04T22:22:55.518Z,5.70
2022-10-04T22:25:25.178Z,5.60
2022-10-04T22:27:54.711Z,5.10
2022-10-04T22:30:25.524Z,5.45
2022-10-04T22:32:56.032Z,5.38
2022-10-04T22:35:23.722Z,5.50
2022-10-04T22:37:51.704Z,5.55
2022-10-04T22:40:22.016Z,5.25
2022-10-04T22:42:56.483Z,5.68
2022-10-04T22:45:25.815Z,5.05
2022-10-04T22:47:54.351Z,4.88
2022-10-04T22:50:30.360Z,5.00
2022-10-04T22:52:58.468Z,5.13
2022-10-04T22:55:26.512Z,5.13
2022-10-04T22:57:56.019Z,4.35
2022-10-04T23:00:23.621Z,4.85
2022-10-04T23:02:51.209Z,5.10
2022-10-04T23:05:20.905Z,4.80
2022-10-04T23:07:49.639Z,4.78
2022-10-04T23:10:19.551Z,4.80
2022-10-04T23:12:48.947Z,5.05
2022-10-04T23:15:20.252Z,5.10
2022-10-04T23:17:54.205Z,4.90
2022-10-04T23:20:22.327Z,4.60
2022-10-04T23:22:51.396Z,4.95
2022-10-04T23:25:21.348Z,4.70
2022-10-04T23:27:49.186Z,4.30
2022-10-04T23:30:20.078Z,4.70
2022-10-04T23:32:50.072Z,4.90
2022-10-04T23:35:20.847Z,6.25
2022-10-04T23:37:49.172Z,7.38
2022-10-04T23:40:19.743Z,7.05
2022-10-04T23:42:49.699Z,8.38
2022-10-04T23:45:21.956Z,7.13
2022-10-04T23:47:51.942Z,6.00
2022-10-04T23:50:23.683Z,4.80
2022-10-04T23:52:53.005Z,4.63
2022-10-04T23:55:23.111Z,4.63
2022-10-04T23:57:51.549Z,4.22
